THY5RZ LOWS-LTFM
Flight info
| Callsign | THY5RZ |
|---|---|
| Flight time | N/A |
| Altitude | 35000 |
| Route | NEMAL DCT LIMRA DCT DIMLO DCT BABIT DCT NISVA L614 GERGI T391 AYTEK |
| Aircraft | B739/M-SDE2E3FGHIRWXY/LB1 |
Departure
| Time | 2026-04-27 15:33 |
|---|---|
| Airport | Salzburg Airport (LOWS) |
Arrival
| Time | N/A |
|---|---|
| Airport | İstanbul Airport (LTFM) |
| Time | Latitude | Longitude | Altitude | Speed | Heading |
|---|---|---|---|---|---|
| 2026-04-27 15:03 | 47.78974 | 13.00029 | 1421 ft | 0 kts | 282° |
| 2026-04-27 15:24 | 47.78971 | 13.00063 | 1421 ft | 4 kts | 268° |
| 2026-04-27 15:25 | 47.78975 | 13.00101 | 1421 ft | 4 kts | 242° |
| 2026-04-27 15:25 | 47.78991 | 13.00126 | 1421 ft | 4 kts | 185° |
| 2026-04-27 15:25 | 47.78999 | 13.00126 | 1421 ft | 0 kts | 157° |
| 2026-04-27 15:29 | 47.78995 | 13.00129 | 1421 ft | 2 kts | 157° |
| 2026-04-27 15:29 | 47.78967 | 13.00161 | 1421 ft | 8 kts | 126° |
| 2026-04-27 15:29 | 47.78956 | 13.00262 | 1421 ft | 12 kts | 94° |
| 2026-04-27 15:30 | 47.78929 | 13.00380 | 1418 ft | 14 kts | 146° |
| 2026-04-27 15:30 | 47.78843 | 13.00437 | 1419 ft | 13 kts | 157° |
| 2026-04-27 15:30 | 47.78751 | 13.00494 | 1419 ft | 16 kts | 157° |
| 2026-04-27 15:30 | 47.78638 | 13.00565 | 1420 ft | 19 kts | 157° |
| 2026-04-27 15:31 | 47.78512 | 13.00644 | 1420 ft | 20 kts | 157° |
| 2026-04-27 15:31 | 47.78388 | 13.00722 | 1420 ft | 19 kts | 157° |
| 2026-04-27 15:31 | 47.78270 | 13.00797 | 1420 ft | 18 kts | 156° |
| 2026-04-27 15:31 | 47.78183 | 13.00927 | 1421 ft | 18 kts | 103° |
| 2026-04-27 15:32 | 47.78213 | 13.01059 | 1423 ft | 9 kts | 40° |
| 2026-04-27 15:32 | 47.78273 | 13.01065 | 1419 ft | 6 kts | 340° |
| 2026-04-27 15:32 | 47.78286 | 13.01057 | 1418 ft | 0 kts | 338° |
| 2026-04-27 15:32 | 47.78302 | 13.01047 | 1422 ft | 15 kts | 337° |
| 2026-04-27 15:33 | 47.78640 | 13.00833 | 1420 ft | 88 kts | 337° |
| 2026-04-27 15:33 | 47.79387 | 13.00361 | 1424 ft | 145 kts | 337° |
| 2026-04-27 15:33 | 47.80446 | 12.99711 | 1589 ft | 176 kts | 338° |
| 2026-04-27 15:33 | 47.81595 | 12.99010 | 2266 ft | 181 kts | 338° |
| 2026-04-27 15:34 | 47.82802 | 12.98424 | 2914 ft | 185 kts | 355° |
| 2026-04-27 15:34 | 47.84028 | 12.98813 | 3556 ft | 185 kts | 36° |
| 2026-04-27 15:34 | 47.84840 | 13.00215 | 4378 ft | 168 kts | 52° |
| 2026-04-27 15:34 | 47.85615 | 13.01490 | 5040 ft | 172 kts | 43° |
| 2026-04-27 15:35 | 47.86521 | 13.02684 | 5599 ft | 171 kts | 40° |
| 2026-04-27 15:35 | 47.87418 | 13.03858 | 6133 ft | 175 kts | 39° |
| 2026-04-27 15:35 | 47.88385 | 13.05037 | 6573 ft | 185 kts | 34° |
| 2026-04-27 15:35 | 47.89501 | 13.06214 | 6805 ft | 205 kts | 32° |
| 2026-04-27 15:36 | 47.90721 | 13.07478 | 7104 ft | 221 kts | 32° |
| 2026-04-27 15:36 | 47.92026 | 13.08830 | 7431 ft | 237 kts | 33° |
| 2026-04-27 15:36 | 47.93332 | 13.10569 | 7506 ft | 269 kts | 51° |
| 2026-04-27 15:36 | 47.94070 | 13.13265 | 7711 ft | 297 kts | 85° |
| 2026-04-27 15:37 | 47.93840 | 13.16314 | 8557 ft | 296 kts | 103° |
| 2026-04-27 15:37 | 47.93374 | 13.19315 | 9408 ft | 299 kts | 102° |
| 2026-04-27 15:37 | 47.92991 | 13.22376 | 10200 ft | 302 kts | 99° |
| 2026-04-27 15:37 | 47.92709 | 13.25575 | 10544 ft | 323 kts | 96° |
| 2026-04-27 15:38 | 47.92499 | 13.29036 | 10759 ft | 345 kts | 94° |
| 2026-04-27 15:38 | 47.92341 | 13.32666 | 11283 ft | 355 kts | 93° |
| 2026-04-27 15:38 | 47.92212 | 13.36354 | 12024 ft | 358 kts | 92° |
| 2026-04-27 15:38 | 47.92097 | 13.40075 | 12783 ft | 361 kts | 92° |
| 2026-04-27 15:39 | 47.91984 | 13.43828 | 13517 ft | 364 kts | 92° |
| 2026-04-27 15:39 | 47.91867 | 13.47622 | 14213 ft | 368 kts | 92° |
| 2026-04-27 15:39 | 47.91759 | 13.51449 | 14840 ft | 372 kts | 91° |
| 2026-04-27 15:39 | 47.91718 | 13.55318 | 15459 ft | 375 kts | 89° |
| 2026-04-27 15:40 | 47.91711 | 13.59232 | 16095 ft | 379 kts | 89° |
| 2026-04-27 15:40 | 47.91712 | 13.63125 | 16715 ft | 383 kts | 89° |
| 2026-04-27 15:40 | 47.91709 | 13.67164 | 17342 ft | 387 kts | 89° |
| 2026-04-27 15:40 | 47.91700 | 13.71142 | 17915 ft | 391 kts | 89° |
| 2026-04-27 15:41 | 47.91685 | 13.75217 | 18498 ft | 396 kts | 89° |
| 2026-04-27 15:41 | 47.91665 | 13.79342 | 19030 ft | 399 kts | 89° |
| 2026-04-27 15:41 | 47.91641 | 13.83490 | 19572 ft | 402 kts | 89° |
| 2026-04-27 15:41 | 47.91614 | 13.87676 | 20087 ft | 406 kts | 89° |
| 2026-04-27 15:42 | 47.91586 | 13.91900 | 20612 ft | 409 kts | 89° |
| 2026-04-27 15:42 | 47.91556 | 13.96168 | 21109 ft | 413 kts | 89° |
| 2026-04-27 15:42 | 47.91524 | 14.00467 | 21630 ft | 417 kts | 89° |
| 2026-04-27 15:42 | 47.91489 | 14.04801 | 22153 ft | 420 kts | 89° |
| 2026-04-27 15:43 | 47.91452 | 14.09175 | 22608 ft | 424 kts | 89° |
| 2026-04-27 15:43 | 47.91414 | 14.13594 | 23133 ft | 427 kts | 89° |
| 2026-04-27 15:43 | 47.91375 | 14.18033 | 23655 ft | 430 kts | 89° |
| 2026-04-27 15:43 | 47.91334 | 14.22509 | 24081 ft | 434 kts | 89° |
| 2026-04-27 15:44 | 47.91291 | 14.27020 | 24511 ft | 436 kts | 89° |
| 2026-04-27 15:44 | 47.91246 | 14.31553 | 24952 ft | 439 kts | 89° |
| 2026-04-27 15:44 | 47.91198 | 14.36119 | 25348 ft | 442 kts | 89° |
| 2026-04-27 15:44 | 47.91025 | 14.40708 | 25776 ft | 446 kts | 98° |
| 2026-04-27 15:45 | 47.90150 | 14.45151 | 26154 ft | 450 kts | 114° |
| 2026-04-27 15:45 | 47.88592 | 14.49203 | 26543 ft | 453 kts | 128° |
| 2026-04-27 15:45 | 47.86531 | 14.52752 | 26973 ft | 454 kts | 133° |
| 2026-04-27 15:45 | 47.84386 | 14.56239 | 27341 ft | 458 kts | 133° |
| 2026-04-27 15:46 | 47.82220 | 14.59734 | 27704 ft | 461 kts | 133° |
| 2026-04-27 15:46 | 47.80044 | 14.63257 | 28049 ft | 464 kts | 133° |
| 2026-04-27 15:46 | 47.77866 | 14.66808 | 28412 ft | 466 kts | 133° |
| 2026-04-27 15:46 | 47.75683 | 14.70387 | 28756 ft | 469 kts | 133° |
| 2026-04-27 15:47 | 47.73489 | 14.73997 | 29118 ft | 471 kts | 132° |
| 2026-04-27 15:47 | 47.71289 | 14.77625 | 29465 ft | 475 kts | 133° |
| 2026-04-27 15:47 | 47.69072 | 14.81281 | 29807 ft | 477 kts | 132° |
| 2026-04-27 15:47 | 47.66848 | 14.84945 | 30174 ft | 478 kts | 132° |
| 2026-04-27 15:48 | 47.64622 | 14.88618 | 30508 ft | 479 kts | 132° |
| 2026-04-27 15:48 | 47.62383 | 14.92295 | 30804 ft | 480 kts | 132° |
| 2026-04-27 15:48 | 47.60145 | 14.95961 | 31212 ft | 479 kts | 132° |
| 2026-04-27 15:49 | 47.55721 | 15.03192 | 32015 ft | 476 kts | 132° |
| 2026-04-27 15:49 | 47.53496 | 15.06821 | 32372 ft | 476 kts | 132° |
| 2026-04-27 15:49 | 47.51268 | 15.10454 | 32718 ft | 476 kts | 132° |
| 2026-04-27 15:49 | 47.49045 | 15.14072 | 33071 ft | 475 kts | 132° |
| 2026-04-27 15:50 | 47.46824 | 15.17682 | 33421 ft | 474 kts | 132° |
| 2026-04-27 15:50 | 47.44605 | 15.21285 | 33806 ft | 473 kts | 132° |
| 2026-04-27 15:50 | 47.42396 | 15.24867 | 34153 ft | 471 kts | 132° |
| 2026-04-27 15:50 | 47.40183 | 15.28448 | 34388 ft | 472 kts | 132° |
| 2026-04-27 15:51 | 47.37969 | 15.32028 | 34596 ft | 473 kts | 132° |
| 2026-04-27 15:51 | 47.35749 | 15.35613 | 34824 ft | 473 kts | 132° |
| 2026-04-27 15:51 | 47.33529 | 15.39192 | 35099 ft | 472 kts | 132° |
| 2026-04-27 15:52 | 47.29076 | 15.46358 | 35125 ft | 474 kts | 132° |
| 2026-04-27 15:52 | 47.24626 | 15.53501 | 35142 ft | 474 kts | 132° |
| 2026-04-27 15:53 | 47.20163 | 15.60646 | 35147 ft | 475 kts | 132° |
| 2026-04-27 15:53 | 47.15680 | 15.67801 | 35139 ft | 477 kts | 133° |
| 2026-04-27 15:54 | 47.11178 | 15.74969 | 35134 ft | 477 kts | 132° |
| 2026-04-27 15:54 | 47.06675 | 15.82119 | 35143 ft | 477 kts | 132° |
| 2026-04-27 15:55 | 47.02170 | 15.89254 | 35125 ft | 476 kts | 132° |
| 2026-04-27 15:55 | 46.97669 | 15.96363 | 35126 ft | 475 kts | 133° |
| 2026-04-27 15:56 | 46.93210 | 16.03387 | 35129 ft | 473 kts | 133° |
| 2026-04-27 15:56 | 46.88735 | 16.10419 | 35128 ft | 472 kts | 133° |
| 2026-04-27 15:57 | 46.84267 | 16.17421 | 35128 ft | 470 kts | 133° |
| 2026-04-27 15:57 | 46.79801 | 16.24402 | 35133 ft | 470 kts | 133° |
| 2026-04-27 15:58 | 46.75342 | 16.31355 | 35133 ft | 469 kts | 133° |
| 2026-04-27 15:58 | 46.71601 | 16.37175 | 35129 ft | 469 kts | 133° |
| 2026-04-27 15:59 | 46.67629 | 16.44661 | 35134 ft | 467 kts | 117° |
| 2026-04-27 15:59 | 46.65028 | 16.53279 | 35134 ft | 465 kts | 110° |
| 2026-04-27 16:00 | 46.62613 | 16.61978 | 35135 ft | 467 kts | 110° |
| 2026-04-27 16:00 | 46.60144 | 16.70721 | 35135 ft | 468 kts | 110° |
| 2026-04-27 16:01 | 46.57632 | 16.79462 | 35155 ft | 469 kts | 110° |
| 2026-04-27 16:01 | 46.55093 | 16.88224 | 35155 ft | 471 kts | 110° |
| 2026-04-27 16:02 | 46.52543 | 16.96989 | 35136 ft | 471 kts | 111° |
| 2026-04-27 16:02 | 46.49985 | 17.05751 | 35147 ft | 471 kts | 111° |
| 2026-04-27 16:03 | 46.47427 | 17.14489 | 35145 ft | 470 kts | 111° |
| 2026-04-27 16:03 | 46.44864 | 17.23213 | 35152 ft | 470 kts | 110° |
| 2026-04-27 16:04 | 46.42299 | 17.31915 | 35149 ft | 469 kts | 111° |
| 2026-04-27 16:04 | 46.39728 | 17.40604 | 35138 ft | 469 kts | 111° |
| 2026-04-27 16:05 | 46.37156 | 17.49266 | 35146 ft | 468 kts | 111° |
| 2026-04-27 16:05 | 46.34577 | 17.57923 | 35150 ft | 468 kts | 110° |
| 2026-04-27 16:06 | 46.31993 | 17.66567 | 35145 ft | 468 kts | 110° |
| 2026-04-27 16:06 | 46.29399 | 17.75215 | 35147 ft | 468 kts | 111° |
| 2026-04-27 16:07 | 46.26816 | 17.83795 | 35150 ft | 469 kts | 111° |
| 2026-04-27 16:07 | 46.24207 | 17.92434 | 35148 ft | 469 kts | 110° |
| 2026-04-27 16:08 | 46.21586 | 18.01080 | 35151 ft | 470 kts | 111° |
| 2026-04-27 16:08 | 46.18958 | 18.09722 | 35148 ft | 471 kts | 111° |
| 2026-04-27 16:09 | 46.16320 | 18.18366 | 35152 ft | 471 kts | 111° |
| 2026-04-27 16:09 | 46.12344 | 18.31337 | 35154 ft | 472 kts | 111° |
| 2026-04-27 16:10 | 46.07021 | 18.48600 | 35150 ft | 471 kts | 111° |
| 2026-04-27 16:11 | 46.03016 | 18.61513 | 35154 ft | 471 kts | 111° |
| 2026-04-27 16:12 | 45.99003 | 18.74390 | 35144 ft | 470 kts | 111° |
| 2026-04-27 16:13 | 45.94985 | 18.87221 | 35143 ft | 469 kts | 111° |
| 2026-04-27 16:13 | 45.91607 | 18.95232 | 35147 ft | 473 kts | 129° |
| 2026-04-27 16:13 | 45.89330 | 18.98636 | 35154 ft | 473 kts | 134° |
| 2026-04-27 16:14 | 45.79820 | 19.11692 | 35138 ft | 473 kts | 135° |
| 2026-04-27 16:15 | 45.70371 | 19.24810 | 35143 ft | 473 kts | 135° |
| 2026-04-27 16:16 | 45.60961 | 19.37875 | 35139 ft | 473 kts | 135° |
| 2026-04-27 16:17 | 45.51509 | 19.50925 | 35139 ft | 473 kts | 135° |
| 2026-04-27 16:18 | 45.42049 | 19.63922 | 35136 ft | 472 kts | 135° |
| 2026-04-27 16:19 | 45.37323 | 19.70391 | 35139 ft | 471 kts | 135° |
| 2026-04-27 16:20 | 45.27865 | 19.83290 | 35137 ft | 471 kts | 136° |
| 2026-04-27 16:21 | 45.20770 | 19.92925 | 35137 ft | 470 kts | 136° |
| 2026-04-27 16:22 | 45.11321 | 20.05702 | 35139 ft | 469 kts | 136° |
| 2026-04-27 16:22 | 45.04235 | 20.15244 | 35141 ft | 468 kts | 136° |
| 2026-04-27 16:23 | 44.97162 | 20.24734 | 35157 ft | 467 kts | 136° |
| 2026-04-27 16:24 | 44.92473 | 20.31007 | 35163 ft | 467 kts | 137° |
| 2026-04-27 16:25 | 44.83028 | 20.43598 | 35132 ft | 467 kts | 137° |
| 2026-04-27 16:26 | 44.73566 | 20.56150 | 35136 ft | 468 kts | 137° |
| 2026-04-27 16:27 | 44.64070 | 20.68690 | 35123 ft | 468 kts | 137° |
| 2026-04-27 16:28 | 44.52195 | 20.84288 | 35124 ft | 468 kts | 138° |
| 2026-04-27 16:29 | 44.40309 | 20.99808 | 35121 ft | 467 kts | 138° |
| 2026-04-27 16:30 | 44.30835 | 21.12115 | 35125 ft | 466 kts | 139° |
| 2026-04-27 16:31 | 44.18944 | 21.27481 | 35120 ft | 466 kts | 139° |
| 2026-04-27 16:32 | 44.11798 | 21.36673 | 35108 ft | 466 kts | 139° |
| 2026-04-27 16:33 | 44.04640 | 21.45848 | 35126 ft | 467 kts | 139° |
| 2026-04-27 16:33 | 43.99859 | 21.51960 | 35126 ft | 467 kts | 139° |
| 2026-04-27 16:34 | 43.95073 | 21.58063 | 35131 ft | 467 kts | 139° |
| 2026-04-27 16:34 | 43.90278 | 21.64164 | 35127 ft | 468 kts | 139° |
| 2026-04-27 16:35 | 43.85479 | 21.70255 | 35130 ft | 468 kts | 139° |
| 2026-04-27 16:36 | 43.78273 | 21.79378 | 35130 ft | 468 kts | 140° |
| 2026-04-27 16:36 | 43.73467 | 21.85444 | 35133 ft | 467 kts | 140° |
| 2026-04-27 16:37 | 43.68666 | 21.91491 | 35126 ft | 467 kts | 140° |
| 2026-04-27 16:37 | 43.63866 | 21.97521 | 35129 ft | 466 kts | 140° |
| 2026-04-27 16:38 | 43.59065 | 22.03541 | 35135 ft | 466 kts | 140° |
| 2026-04-27 16:38 | 43.54272 | 22.09537 | 35133 ft | 465 kts | 140° |
| 2026-04-27 16:39 | 43.49514 | 22.15474 | 35136 ft | 464 kts | 140° |
| 2026-04-27 16:39 | 43.44718 | 22.21447 | 35129 ft | 464 kts | 140° |
| 2026-04-27 16:40 | 43.39924 | 22.27404 | 35137 ft | 464 kts | 140° |
| 2026-04-27 16:40 | 43.35132 | 22.33345 | 35144 ft | 464 kts | 140° |
| 2026-04-27 16:41 | 43.30337 | 22.39277 | 35130 ft | 464 kts | 140° |
| 2026-04-27 16:41 | 43.25532 | 22.45208 | 35135 ft | 464 kts | 140° |
| 2026-04-27 16:42 | 43.20735 | 22.51117 | 35138 ft | 464 kts | 140° |
| 2026-04-27 16:42 | 43.15927 | 22.57026 | 35134 ft | 464 kts | 140° |
| 2026-04-27 16:43 | 43.11121 | 22.62919 | 35124 ft | 464 kts | 140° |
| 2026-04-27 16:43 | 43.06308 | 22.68810 | 35124 ft | 464 kts | 140° |
| 2026-04-27 16:44 | 43.01494 | 22.74688 | 35132 ft | 465 kts | 140° |
| 2026-04-27 16:44 | 42.97192 | 22.81209 | 35130 ft | 469 kts | 124° |
| 2026-04-27 16:45 | 42.94355 | 22.89219 | 35135 ft | 470 kts | 112° |
| 2026-04-27 16:45 | 42.91970 | 22.97529 | 35129 ft | 471 kts | 111° |
| 2026-04-27 16:46 | 42.89555 | 23.05838 | 35123 ft | 471 kts | 112° |
| 2026-04-27 16:46 | 42.87094 | 23.14125 | 35129 ft | 471 kts | 112° |
| 2026-04-27 16:47 | 42.84612 | 23.22399 | 35125 ft | 471 kts | 112° |
| 2026-04-27 16:47 | 42.82124 | 23.30664 | 35128 ft | 471 kts | 112° |
| 2026-04-27 16:48 | 42.80056 | 23.37520 | 35129 ft | 471 kts | 112° |
| 2026-04-27 16:48 | 42.77564 | 23.45762 | 35145 ft | 470 kts | 113° |
| 2026-04-27 16:49 | 42.73822 | 23.58091 | 35147 ft | 470 kts | 113° |
| 2026-04-27 16:49 | 42.71323 | 23.66292 | 35153 ft | 469 kts | 113° |
| 2026-04-27 16:50 | 42.68822 | 23.74474 | 35152 ft | 468 kts | 113° |
| 2026-04-27 16:50 | 42.66341 | 23.82579 | 35159 ft | 467 kts | 112° |
| 2026-04-27 16:51 | 42.64052 | 23.90831 | 35168 ft | 467 kts | 110° |
| 2026-04-27 16:51 | 42.61829 | 23.99100 | 35168 ft | 466 kts | 110° |
| 2026-04-27 16:52 | 42.59558 | 24.07339 | 35173 ft | 466 kts | 111° |
| 2026-04-27 16:52 | 42.57271 | 24.15572 | 35174 ft | 467 kts | 111° |
| 2026-04-27 16:53 | 42.54976 | 24.23816 | 35162 ft | 467 kts | 110° |
| 2026-04-27 16:53 | 42.52678 | 24.32054 | 35174 ft | 467 kts | 111° |
| 2026-04-27 16:54 | 42.50376 | 24.40279 | 35189 ft | 467 kts | 111° |
| 2026-04-27 16:54 | 42.48065 | 24.48510 | 35183 ft | 467 kts | 111° |
| 2026-04-27 16:55 | 42.45764 | 24.56679 | 35188 ft | 467 kts | 111° |
| 2026-04-27 16:55 | 42.43444 | 24.64886 | 35182 ft | 467 kts | 111° |
| 2026-04-27 16:56 | 42.41116 | 24.73098 | 35184 ft | 467 kts | 111° |
| 2026-04-27 16:56 | 42.38783 | 24.81297 | 35188 ft | 466 kts | 111° |
| 2026-04-27 16:57 | 42.36450 | 24.89472 | 35181 ft | 466 kts | 111° |
| 2026-04-27 16:57 | 42.34113 | 24.97636 | 35182 ft | 466 kts | 111° |
| 2026-04-27 16:58 | 42.31780 | 25.05758 | 35183 ft | 466 kts | 111° |
| 2026-04-27 16:58 | 42.29432 | 25.13905 | 35182 ft | 465 kts | 111° |
| 2026-04-27 16:59 | 42.27079 | 25.22046 | 35183 ft | 465 kts | 111° |
| 2026-04-27 16:59 | 42.24719 | 25.30186 | 35187 ft | 465 kts | 111° |
| 2026-04-27 17:00 | 42.21177 | 25.42356 | 35190 ft | 464 kts | 111° |
| 2026-04-27 17:01 | 42.18808 | 25.50461 | 35192 ft | 464 kts | 112° |
| 2026-04-27 17:01 | 42.15870 | 25.58113 | 35197 ft | 463 kts | 122° |
| 2026-04-27 17:02 | 42.12505 | 25.65515 | 35185 ft | 463 kts | 122° |
| 2026-04-27 17:02 | 42.09154 | 25.72916 | 35191 ft | 463 kts | 122° |
| 2026-04-27 17:03 | 42.05836 | 25.80353 | 35185 ft | 463 kts | 122° |
| 2026-04-27 17:03 | 42.02529 | 25.87791 | 35184 ft | 463 kts | 122° |
| 2026-04-27 17:04 | 41.99254 | 25.95145 | 35172 ft | 449 kts | 122° |
| 2026-04-27 17:04 | 41.97672 | 25.98690 | 35158 ft | 435 kts | 122° |
| 2026-04-27 17:04 | 41.96142 | 26.02112 | 35162 ft | 420 kts | 122° |
| 2026-04-27 17:05 | 41.93160 | 26.08766 | 35187 ft | 415 kts | 122° |
| 2026-04-27 17:05 | 41.90173 | 26.15413 | 35190 ft | 416 kts | 122° |
| 2026-04-27 17:06 | 41.87173 | 26.22079 | 35201 ft | 418 kts | 122° |
| 2026-04-27 17:06 | 41.84183 | 26.28714 | 35200 ft | 419 kts | 122° |
| 2026-04-27 17:07 | 41.81160 | 26.35403 | 35204 ft | 419 kts | 122° |
| 2026-04-27 17:07 | 41.79871 | 26.38907 | 35192 ft | 421 kts | 111° |
| 2026-04-27 17:07 | 41.78903 | 26.42598 | 35208 ft | 420 kts | 109° |
| 2026-04-27 17:08 | 41.77018 | 26.50016 | 35194 ft | 420 kts | 110° |
| 2026-04-27 17:08 | 41.74986 | 26.57347 | 35190 ft | 419 kts | 116° |
| 2026-04-27 17:09 | 41.71884 | 26.63864 | 35202 ft | 415 kts | 127° |
| 2026-04-27 17:09 | 41.68601 | 26.70214 | 35207 ft | 415 kts | 126° |
| 2026-04-27 17:10 | 41.65412 | 26.76606 | 35185 ft | 411 kts | 128° |